sensor_id;sensor_type;location;lat;lon;timestamp;P1;durP1;ratioP1;P2;durP2;ratioP2
4839;SDS011;2434;48.486;7.964;2024-01-07T00:00:02;18.30;;;10.13;;
4839;SDS011;2434;48.486;7.964;2024-01-07T00:02:31;16.13;;;10.40;;
4839;SDS011;2434;48.486;7.964;2024-01-07T00:04:59;18.30;;;10.63;;
4839;SDS011;2434;48.486;7.964;2024-01-07T00:07:29;15.67;;;8.87;;
4839;SDS011;2434;48.486;7.964;2024-01-07T00:09:57;15.57;;;9.43;;
4839;SDS011;2434;48.486;7.964;2024-01-07T00:12:25;15.70;;;9.27;;
4839;SDS011;2434;48.486;7.964;2024-01-07T00:14:53;16.27;;;9.97;;
4839;SDS011;2434;48.486;7.964;2024-01-07T00:17:21;16.93;;;9.57;;
4839;SDS011;2434;48.486;7.964;2024-01-07T00:19:50;20.47;;;10.47;;
4839;SDS011;2434;48.486;7.964;2024-01-07T00:22:18;11.47;;;7.63;;
4839;SDS011;2434;48.486;7.964;2024-01-07T00:24:48;11.13;;;7.40;;
4839;SDS011;2434;48.486;7.964;2024-01-07T00:27:16;15.20;;;7.60;;
4839;SDS011;2434;48.486;7.964;2024-01-07T00:29:44;11.40;;;7.30;;
4839;SDS011;2434;48.486;7.964;2024-01-07T00:32:12;13.70;;;7.80;;
4839;SDS011;2434;48.486;7.964;2024-01-07T00:34:40;13.20;;;7.83;;
4839;SDS011;2434;48.486;7.964;2024-01-07T00:37:09;12.17;;;7.33;;
4839;SDS011;2434;48.486;7.964;2024-01-07T00:39:37;12.77;;;7.07;;
4839;SDS011;2434;48.486;7.964;2024-01-07T00:42:06;12.67;;;8.10;;
4839;SDS011;2434;48.486;7.964;2024-01-07T00:44:34;11.50;;;7.23;;
4839;SDS011;2434;48.486;7.964;2024-01-07T00:47:04;12.67;;;8.57;;
4839;SDS011;2434;48.486;7.964;2024-01-07T00:49:32;12.30;;;7.80;;
4839;SDS011;2434;48.486;7.964;2024-01-07T00:52:01;15.27;;;7.90;;
4839;SDS011;2434;48.486;7.964;2024-01-07T00:54:29;12.90;;;7.67;;
4839;SDS011;2434;48.486;7.964;2024-01-07T00:56:57;11.63;;;7.07;;
4839;SDS011;2434;48.486;7.964;2024-01-07T00:59:26;11.90;;;7.93;;
4839;SDS011;2434;48.486;7.964;2024-01-07T01:01:56;14.37;;;6.87;;
4839;SDS011;2434;48.486;7.964;2024-01-07T01:04:24;10.13;;;6.80;;
4839;SDS011;2434;48.486;7.964;2024-01-07T01:06:52;9.53;;;5.87;;
4839;SDS011;2434;48.486;7.964;2024-01-07T01:09:20;8.33;;;5.07;;
4839;SDS011;2434;48.486;7.964;2024-01-07T01:11:48;10.03;;;6.13;;
4839;SDS011;2434;48.486;7.964;2024-01-07T01:14:17;8.23;;;4.77;;
4839;SDS011;2434;48.486;7.964;2024-01-07T01:16:46;8.23;;;4.93;;
4839;SDS011;2434;48.486;7.964;2024-01-07T01:19:14;11.50;;;6.63;;
4839;SDS011;2434;48.486;7.964;2024-01-07T01:21:43;9.00;;;4.93;;
4839;SDS011;2434;48.486;7.964;2024-01-07T01:24:11;9.20;;;6.10;;
4839;SDS011;2434;48.486;7.964;2024-01-07T01:26:39;9.67;;;5.57;;
4839;SDS011;2434;48.486;7.964;2024-01-07T01:29:07;10.60;;;5.73;;
4839;SDS011;2434;48.486;7.964;2024-01-07T01:31:35;11.13;;;6.33;;
4839;SDS011;2434;48.486;7.964;2024-01-07T01:34:05;10.60;;;6.07;;
4839;SDS011;2434;48.486;7.964;2024-01-07T01:36:33;13.50;;;7.40;;
4839;SDS011;2434;48.486;7.964;2024-01-07T01:39:02;13.90;;;7.43;;
4839;SDS011;2434;48.486;7.964;2024-01-07T01:41:30;10.37;;;6.90;;
4839;SDS011;2434;48.486;7.964;2024-01-07T01:44:00;17.20;;;8.93;;
4839;SDS011;2434;48.486;7.964;2024-01-07T01:46:28;13.90;;;8.80;;
4839;SDS011;2434;48.486;7.964;2024-01-07T01:48:57;13.40;;;8.50;;
4839;SDS011;2434;48.486;7.964;2024-01-07T01:51:27;15.10;;;9.47;;
4839;SDS011;2434;48.486;7.964;2024-01-07T01:53:55;16.40;;;8.77;;
4839;SDS011;2434;48.486;7.964;2024-01-07T01:56:24;13.37;;;8.63;;
4839;SDS011;2434;48.486;7.964;2024-01-07T01:58:54;15.67;;;9.33;;
4839;SDS011;2434;48.486;7.964;2024-01-07T02:01:24;17.10;;;10.07;;
4839;SDS011;2434;48.486;7.964;2024-01-07T02:03:53;15.20;;;10.10;;
4839;SDS011;2434;48.486;7.964;2024-01-07T02:06:21;17.10;;;9.20;;
4839;SDS011;2434;48.486;7.964;2024-01-07T02:08:51;18.10;;;9.97;;
4839;SDS011;2434;48.486;7.964;2024-01-07T02:11:20;19.67;;;10.30;;
4839;SDS011;2434;48.486;7.964;2024-01-07T02:13:49;16.43;;;9.70;;
4839;SDS011;2434;48.486;7.964;2024-01-07T02:16:17;16.33;;;10.80;;
4839;SDS011;2434;48.486;7.964;2024-01-07T02:18:45;15.53;;;10.30;;
4839;SDS011;2434;48.486;7.964;2024-01-07T02:21:13;17.77;;;9.57;;
4839;SDS011;2434;48.486;7.964;2024-01-07T02:23:42;15.27;;;9.67;;
4839;SDS011;2434;48.486;7.964;2024-01-07T02:26:11;17.70;;;10.90;;
4839;SDS011;2434;48.486;7.964;2024-01-07T02:28:40;18.10;;;10.60;;
4839;SDS011;2434;48.486;7.964;2024-01-07T02:31:08;18.90;;;10.60;;
4839;SDS011;2434;48.486;7.964;2024-01-07T02:33:36;17.00;;;10.53;;
4839;SDS011;2434;48.486;7.964;2024-01-07T02:36:04;15.90;;;10.53;;
4839;SDS011;2434;48.486;7.964;2024-01-07T02:38:33;16.00;;;9.93;;
4839;SDS011;2434;48.486;7.964;2024-01-07T02:41:01;23.23;;;13.07;;
4839;SDS011;2434;48.486;7.964;2024-01-07T02:43:31;16.23;;;10.67;;
4839;SDS011;2434;48.486;7.964;2024-01-07T02:45:59;20.40;;;11.70;;
4839;SDS011;2434;48.486;7.964;2024-01-07T02:48:28;16.37;;;10.40;;
4839;SDS011;2434;48.486;7.964;2024-01-07T02:50:56;17.27;;;10.73;;
4839;SDS011;2434;48.486;7.964;2024-01-07T02:53:24;18.03;;;11.10;;
4839;SDS011;2434;48.486;7.964;2024-01-07T02:55:52;15.80;;;10.10;;
4839;SDS011;2434;48.486;7.964;2024-01-07T02:58:20;17.87;;;9.40;;
4839;SDS011;2434;48.486;7.964;2024-01-07T03:00:50;13.10;;;8.87;;
4839;SDS011;2434;48.486;7.964;2024-01-07T03:03:18;14.30;;;7.90;;
4839;SDS011;2434;48.486;7.964;2024-01-07T03:05:46;13.20;;;8.33;;
4839;SDS011;2434;48.486;7.964;2024-01-07T03:08:15;14.73;;;7.90;;
4839;SDS011;2434;48.486;7.964;2024-01-07T03:10:43;13.87;;;8.87;;
4839;SDS011;2434;48.486;7.964;2024-01-07T03:13:11;11.67;;;8.27;;
4839;SDS011;2434;48.486;7.964;2024-01-07T03:15:40;15.90;;;9.00;;
4839;SDS011;2434;48.486;7.964;2024-01-07T03:18:09;13.97;;;8.47;;
4839;SDS011;2434;48.486;7.964;2024-01-07T03:20:37;9.97;;;7.07;;
4839;SDS011;2434;48.486;7.964;2024-01-07T03:23:05;13.70;;;8.37;;
4839;SDS011;2434;48.486;7.964;2024-01-07T03:25:34;13.73;;;8.17;;
4839;SDS011;2434;48.486;7.964;2024-01-07T03:28:02;12.73;;;8.23;;
4839;SDS011;2434;48.486;7.964;2024-01-07T03:30:30;13.67;;;8.83;;
4839;SDS011;2434;48.486;7.964;2024-01-07T03:32:59;19.27;;;9.60;;
4839;SDS011;2434;48.486;7.964;2024-01-07T03:35:28;16.80;;;9.60;;
4839;SDS011;2434;48.486;7.964;2024-01-07T03:37:56;16.57;;;9.93;;
4839;SDS011;2434;48.486;7.964;2024-01-07T03:40:24;15.00;;;9.50;;
4839;SDS011;2434;48.486;7.964;2024-01-07T03:42:52;13.97;;;9.17;;
4839;SDS011;2434;48.486;7.964;2024-01-07T03:45:20;16.23;;;10.07;;
4839;SDS011;2434;48.486;7.964;2024-01-07T03:47:49;14.00;;;8.77;;
4839;SDS011;2434;48.486;7.964;2024-01-07T03:50:17;16.33;;;10.10;;
4839;SDS011;2434;48.486;7.964;2024-01-07T03:52:46;14.87;;;9.10;;
4839;SDS011;2434;48.486;7.964;2024-01-07T03:55:14;13.77;;;8.27;;
4839;SDS011;2434;48.486;7.964;2024-01-07T03:57:43;12.37;;;8.33;;
4839;SDS011;2434;48.486;7.964;2024-01-07T04:00:11;12.60;;;7.90;;
4839;SDS011;2434;48.486;7.964;2024-01-07T04:02:39;12.87;;;7.90;;
4839;SDS011;2434;48.486;7.964;2024-01-07T04:05:08;12.30;;;7.73;;
4839;SDS011;2434;48.486;7.964;2024-01-07T04:07:36;14.13;;;8.27;;
4839;SDS011;2434;48.486;7.964;2024-01-07T04:10:06;10.67;;;6.13;;
4839;SDS011;2434;48.486;7.964;2024-01-07T04:12:36;9.30;;;6.27;;
4839;SDS011;2434;48.486;7.964;2024-01-07T04:15:04;10.17;;;6.60;;
4839;SDS011;2434;48.486;7.964;2024-01-07T04:17:33;10.50;;;6.63;;
4839;SDS011;2434;48.486;7.964;2024-01-07T04:20:01;10.07;;;6.53;;
4839;SDS011;2434;48.486;7.964;2024-01-07T04:22:29;11.07;;;6.17;;
4839;SDS011;2434;48.486;7.964;2024-01-07T04:24:57;13.13;;;6.87;;
4839;SDS011;2434;48.486;7.964;2024-01-07T04:27:27;9.73;;;5.73;;
4839;SDS011;2434;48.486;7.964;2024-01-07T04:29:55;10.80;;;5.73;;
4839;SDS011;2434;48.486;7.964;2024-01-07T04:32:23;10.10;;;5.70;;
4839;SDS011;2434;48.486;7.964;2024-01-07T04:34:51;10.07;;;5.70;;
4839;SDS011;2434;48.486;7.964;2024-01-07T04:37:19;8.93;;;5.40;;
4839;SDS011;2434;48.486;7.964;2024-01-07T04:39:47;8.17;;;5.00;;
4839;SDS011;2434;48.486;7.964;2024-01-07T04:42:16;6.60;;;4.83;;
4839;SDS011;2434;48.486;7.964;2024-01-07T04:44:46;11.07;;;5.17;;
4839;SDS011;2434;48.486;7.964;2024-01-07T04:47:26;9.30;;;5.87;;
4839;SDS011;2434;48.486;7.964;2024-01-07T04:49:55;8.60;;;4.87;;
4839;SDS011;2434;48.486;7.964;2024-01-07T04:52:25;7.10;;;4.57;;
4839;SDS011;2434;48.486;7.964;2024-01-07T04:54:53;10.47;;;5.93;;
4839;SDS011;2434;48.486;7.964;2024-01-07T04:57:22;10.40;;;5.37;;
4839;SDS011;2434;48.486;7.964;2024-01-07T04:59:52;9.03;;;5.40;;
4839;SDS011;2434;48.486;7.964;2024-01-07T05:02:21;10.60;;;6.10;;
4839;SDS011;2434;48.486;7.964;2024-01-07T05:04:49;8.70;;;4.67;;
4839;SDS011;2434;48.486;7.964;2024-01-07T05:07:17;10.30;;;5.10;;
4839;SDS011;2434;48.486;7.964;2024-01-07T05:09:46;9.07;;;5.43;;
4839;SDS011;2434;48.486;7.964;2024-01-07T05:12:14;7.80;;;4.80;;
4839;SDS011;2434;48.486;7.964;2024-01-07T05:14:42;8.80;;;5.27;;
4839;SDS011;2434;48.486;7.964;2024-01-07T05:17:12;8.87;;;5.00;;
4839;SDS011;2434;48.486;7.964;2024-01-07T05:19:40;8.33;;;4.93;;
4839;SDS011;2434;48.486;7.964;2024-01-07T05:22:09;8.20;;;5.17;;
4839;SDS011;2434;48.486;7.964;2024-01-07T05:24:37;11.73;;;6.43;;
4839;SDS011;2434;48.486;7.964;2024-01-07T05:27:05;11.37;;;6.40;;
4839;SDS011;2434;48.486;7.964;2024-01-07T05:29:33;9.07;;;5.13;;
4839;SDS011;2434;48.486;7.964;2024-01-07T05:32:02;10.60;;;5.17;;
4839;SDS011;2434;48.486;7.964;2024-01-07T05:34:32;11.37;;;6.80;;
4839;SDS011;2434;48.486;7.964;2024-01-07T05:37:00;15.33;;;7.23;;
4839;SDS011;2434;48.486;7.964;2024-01-07T05:39:28;11.80;;;6.30;;
4839;SDS011;2434;48.486;7.964;2024-01-07T05:41:56;14.40;;;7.50;;
4839;SDS011;2434;48.486;7.964;2024-01-07T05:44:24;17.97;;;8.60;;
4839;SDS011;2434;48.486;7.964;2024-01-07T05:46:55;19.83;;;9.40;;
4839;SDS011;2434;48.486;7.964;2024-01-07T05:49:23;24.80;;;11.23;;
4839;SDS011;2434;48.486;7.964;2024-01-07T05:51:53;17.63;;;11.10;;
4839;SDS011;2434;48.486;7.964;2024-01-07T05:54:21;25.77;;;11.23;;
4839;SDS011;2434;48.486;7.964;2024-01-07T05:56:49;21.07;;;11.30;;
4839;SDS011;2434;48.486;7.964;2024-01-07T05:59:18;19.13;;;10.70;;
4839;SDS011;2434;48.486;7.964;2024-01-07T06:01:46;21.47;;;12.03;;
4839;SDS011;2434;48.486;7.964;2024-01-07T06:04:15;30.67;;;13.07;;
4839;SDS011;2434;48.486;7.964;2024-01-07T06:06:43;24.80;;;14.67;;
4839;SDS011;2434;48.486;7.964;2024-01-07T06:09:13;25.00;;;12.67;;
4839;SDS011;2434;48.486;7.964;2024-01-07T06:11:41;29.80;;;13.53;;
4839;SDS011;2434;48.486;7.964;2024-01-07T06:14:09;25.57;;;12.60;;
4839;SDS011;2434;48.486;7.964;2024-01-07T06:16:37;22.00;;;12.07;;
4839;SDS011;2434;48.486;7.964;2024-01-07T06:19:05;21.00;;;11.40;;
4839;SDS011;2434;48.486;7.964;2024-01-07T06:21:33;26.87;;;12.60;;
4839;SDS011;2434;48.486;7.964;2024-01-07T06:24:04;20.80;;;12.67;;
4839;SDS011;2434;48.486;7.964;2024-01-07T06:26:33;19.23;;;11.30;;
4839;SDS011;2434;48.486;7.964;2024-01-07T06:29:02;20.77;;;11.47;;
4839;SDS011;2434;48.486;7.964;2024-01-07T06:31:30;16.57;;;9.90;;
4839;SDS011;2434;48.486;7.964;2024-01-07T06:33:58;13.90;;;8.70;;
4839;SDS011;2434;48.486;7.964;2024-01-07T06:36:27;10.83;;;6.00;;
4839;SDS011;2434;48.486;7.964;2024-01-07T06:38:55;9.00;;;5.80;;
4839;SDS011;2434;48.486;7.964;2024-01-07T06:41:24;9.23;;;5.73;;
4839;SDS011;2434;48.486;7.964;2024-01-07T06:43:53;10.47;;;6.00;;
4839;SDS011;2434;48.486;7.964;2024-01-07T06:46:23;10.63;;;5.00;;
4839;SDS011;2434;48.486;7.964;2024-01-07T06:48:51;7.83;;;4.93;;
4839;SDS011;2434;48.486;7.964;2024-01-07T06:51:19;10.97;;;5.70;;
4839;SDS011;2434;48.486;7.964;2024-01-07T06:53:47;8.97;;;6.10;;
4839;SDS011;2434;48.486;7.964;2024-01-07T06:56:17;9.93;;;6.33;;
4839;SDS011;2434;48.486;7.964;2024-01-07T06:58:45;10.60;;;6.60;;
4839;SDS011;2434;48.486;7.964;2024-01-07T07:01:15;15.03;;;7.77;;
4839;SDS011;2434;48.486;7.964;2024-01-07T07:03:47;13.57;;;8.20;;
4839;SDS011;2434;48.486;7.964;2024-01-07T07:06:16;15.43;;;9.23;;
4839;SDS011;2434;48.486;7.964;2024-01-07T07:08:44;15.30;;;8.40;;
4839;SDS011;2434;48.486;7.964;2024-01-07T07:11:13;20.27;;;10.97;;
4839;SDS011;2434;48.486;7.964;2024-01-07T07:13:41;21.23;;;11.27;;
4839;SDS011;2434;48.486;7.964;2024-01-07T07:16:09;16.60;;;9.80;;
4839;SDS011;2434;48.486;7.964;2024-01-07T07:18:38;20.43;;;12.47;;
4839;SDS011;2434;48.486;7.964;2024-01-07T07:21:06;27.27;;;13.07;;
4839;SDS011;2434;48.486;7.964;2024-01-07T07:23:34;21.47;;;11.73;;
4839;SDS011;2434;48.486;7.964;2024-01-07T07:26:03;27.43;;;13.70;;
4839;SDS011;2434;48.486;7.964;2024-01-07T07:28:31;24.83;;;12.60;;
4839;SDS011;2434;48.486;7.964;2024-01-07T07:30:59;23.90;;;13.97;;
4839;SDS011;2434;48.486;7.964;2024-01-07T07:33:27;25.53;;;13.87;;
4839;SDS011;2434;48.486;7.964;2024-01-07T07:35:57;30.60;;;15.90;;
4839;SDS011;2434;48.486;7.964;2024-01-07T07:38:25;32.27;;;15.23;;
4839;SDS011;2434;48.486;7.964;2024-01-07T07:40:53;25.70;;;15.37;;
4839;SDS011;2434;48.486;7.964;2024-01-07T07:43:21;25.27;;;15.20;;
4839;SDS011;2434;48.486;7.964;2024-01-07T07:45:49;31.37;;;15.77;;
4839;SDS011;2434;48.486;7.964;2024-01-07T07:48:17;26.30;;;15.40;;
4839;SDS011;2434;48.486;7.964;2024-01-07T07:50:46;31.13;;;18.00;;
4839;SDS011;2434;48.486;7.964;2024-01-07T07:53:15;31.43;;;18.03;;
4839;SDS011;2434;48.486;7.964;2024-01-07T07:55:44;27.80;;;16.43;;
4839;SDS011;2434;48.486;7.964;2024-01-07T07:58:12;27.93;;;15.93;;
4839;SDS011;2434;48.486;7.964;2024-01-07T08:00:40;29.40;;;17.37;;
4839;SDS011;2434;48.486;7.964;2024-01-07T08:03:08;28.63;;;16.83;;
4839;SDS011;2434;48.486;7.964;2024-01-07T08:05:37;30.50;;;17.40;;
4839;SDS011;2434;48.486;7.964;2024-01-07T08:08:06;28.93;;;17.20;;
4839;SDS011;2434;48.486;7.964;2024-01-07T08:10:36;30.93;;;16.80;;
4839;SDS011;2434;48.486;7.964;2024-01-07T08:13:04;35.27;;;18.37;;
4839;SDS011;2434;48.486;7.964;2024-01-07T08:15:33;27.67;;;16.93;;
4839;SDS011;2434;48.486;7.964;2024-01-07T08:18:01;27.93;;;17.40;;
4839;SDS011;2434;48.486;7.964;2024-01-07T08:20:30;29.50;;;17.30;;
4839;SDS011;2434;48.486;7.964;2024-01-07T08:22:58;34.83;;;18.10;;
4839;SDS011;2434;48.486;7.964;2024-01-07T08:25:26;24.07;;;15.00;;
4839;SDS011;2434;48.486;7.964;2024-01-07T08:27:56;26.40;;;15.93;;
4839;SDS011;2434;48.486;7.964;2024-01-07T08:30:25;27.20;;;15.13;;
4839;SDS011;2434;48.486;7.964;2024-01-07T08:32:53;26.43;;;16.17;;
4839;SDS011;2434;48.486;7.964;2024-01-07T08:35:22;28.20;;;16.70;;
4839;SDS011;2434;48.486;7.964;2024-01-07T08:37:53;24.50;;;13.80;;
4839;SDS011;2434;48.486;7.964;2024-01-07T08:40:21;27.37;;;15.17;;
4839;SDS011;2434;48.486;7.964;2024-01-07T08:42:49;27.67;;;15.57;;
4839;SDS011;2434;48.486;7.964;2024-01-07T08:45:19;27.03;;;15.40;;
4839;SDS011;2434;48.486;7.964;2024-01-07T08:47:47;25.87;;;15.60;;
4839;SDS011;2434;48.486;7.964;2024-01-07T08:50:15;26.40;;;15.57;;
4839;SDS011;2434;48.486;7.964;2024-01-07T08:52:43;23.10;;;15.17;;
4839;SDS011;2434;48.486;7.964;2024-01-07T08:55:12;27.53;;;14.40;;
4839;SDS011;2434;48.486;7.964;2024-01-07T08:57:42;22.07;;;14.83;;
4839;SDS011;2434;48.486;7.964;2024-01-07T09:00:12;20.50;;;13.07;;
4839;SDS011;2434;48.486;7.964;2024-01-07T09:02:42;23.73;;;12.97;;
4839;SDS011;2434;48.486;7.964;2024-01-07T09:05:10;19.97;;;12.00;;
4839;SDS011;2434;48.486;7.964;2024-01-07T09:07:40;21.00;;;13.37;;
4839;SDS011;2434;48.486;7.964;2024-01-07T09:10:08;22.13;;;11.93;;
4839;SDS011;2434;48.486;7.964;2024-01-07T09:12:38;18.07;;;12.00;;
4839;SDS011;2434;48.486;7.964;2024-01-07T09:15:06;21.37;;;12.93;;
4839;SDS011;2434;48.486;7.964;2024-01-07T09:17:36;19.50;;;11.80;;
4839;SDS011;2434;48.486;7.964;2024-01-07T09:20:07;21.50;;;12.03;;
4839;SDS011;2434;48.486;7.964;2024-01-07T09:22:36;20.70;;;12.40;;
4839;SDS011;2434;48.486;7.964;2024-01-07T09:25:05;17.87;;;10.97;;
4839;SDS011;2434;48.486;7.964;2024-01-07T09:27:33;17.63;;;11.33;;
4839;SDS011;2434;48.486;7.964;2024-01-07T09:30:02;16.37;;;10.63;;
4839;SDS011;2434;48.486;7.964;2024-01-07T09:32:30;18.20;;;10.77;;
4839;SDS011;2434;48.486;7.964;2024-01-07T09:35:03;18.00;;;10.87;;
4839;SDS011;2434;48.486;7.964;2024-01-07T09:37:34;19.17;;;11.23;;
4839;SDS011;2434;48.486;7.964;2024-01-07T09:40:03;15.80;;;9.97;;
4839;SDS011;2434;48.486;7.964;2024-01-07T09:42:33;20.90;;;12.77;;
4839;SDS011;2434;48.486;7.964;2024-01-07T09:45:02;21.47;;;10.80;;
4839;SDS011;2434;48.486;7.964;2024-01-07T09:47:31;18.20;;;11.97;;
4839;SDS011;2434;48.486;7.964;2024-01-07T09:50:00;22.60;;;11.27;;
4839;SDS011;2434;48.486;7.964;2024-01-07T09:52:28;21.03;;;10.63;;
4839;SDS011;2434;48.486;7.964;2024-01-07T09:54:58;19.70;;;10.80;;
4839;SDS011;2434;48.486;7.964;2024-01-07T09:57:30;18.53;;;11.00;;
4839;SDS011;2434;48.486;7.964;2024-01-07T09:59:59;20.90;;;11.97;;
4839;SDS011;2434;48.486;7.964;2024-01-07T10:02:37;21.80;;;11.60;;
4839;SDS011;2434;48.486;7.964;2024-01-07T10:05:07;23.90;;;11.93;;
4839;SDS011;2434;48.486;7.964;2024-01-07T10:07:35;17.90;;;10.87;;
4839;SDS011;2434;48.486;7.964;2024-01-07T10:10:12;18.73;;;10.60;;
4839;SDS011;2434;48.486;7.964;2024-01-07T10:12:41;19.27;;;11.60;;
4839;SDS011;2434;48.486;7.964;2024-01-07T10:15:11;17.70;;;10.53;;
4839;SDS011;2434;48.486;7.964;2024-01-07T10:17:39;21.40;;;11.30;;
4839;SDS011;2434;48.486;7.964;2024-01-07T10:20:09;22.30;;;12.90;;
4839;SDS011;2434;48.486;7.964;2024-01-07T10:22:39;21.17;;;11.00;;
4839;SDS011;2434;48.486;7.964;2024-01-07T10:25:07;17.60;;;10.63;;
4839;SDS011;2434;48.486;7.964;2024-01-07T10:27:37;17.77;;;12.50;;
4839;SDS011;2434;48.486;7.964;2024-01-07T10:30:05;16.73;;;10.40;;
4839;SDS011;2434;48.486;7.964;2024-01-07T10:32:35;18.73;;;10.53;;
4839;SDS011;2434;48.486;7.964;2024-01-07T10:35:06;16.13;;;10.50;;
4839;SDS011;2434;48.486;7.964;2024-01-07T10:37:38;17.47;;;10.03;;
4839;SDS011;2434;48.486;7.964;2024-01-07T10:40:07;18.60;;;11.00;;
4839;SDS011;2434;48.486;7.964;2024-01-07T10:42:40;17.13;;;10.00;;
4839;SDS011;2434;48.486;7.964;2024-01-07T10:45:11;14.23;;;9.57;;
4839;SDS011;2434;48.486;7.964;2024-01-07T10:47:41;17.60;;;10.83;;
4839;SDS011;2434;48.486;7.964;2024-01-07T10:50:13;18.73;;;10.77;;
4839;SDS011;2434;48.486;7.964;2024-01-07T10:52:45;19.77;;;10.87;;
4839;SDS011;2434;48.486;7.964;2024-01-07T10:55:17;17.70;;;11.40;;
4839;SDS011;2434;48.486;7.964;2024-01-07T10:57:49;18.37;;;12.43;;
4839;SDS011;2434;48.486;7.964;2024-01-07T11:00:17;19.83;;;11.20;;
4839;SDS011;2434;48.486;7.964;2024-01-07T11:02:55;15.50;;;10.30;;
4839;SDS011;2434;48.486;7.964;2024-01-07T11:05:33;25.00;;;11.63;;
4839;SDS011;2434;48.486;7.964;2024-01-07T11:08:11;18.17;;;12.83;;
4839;SDS011;2434;48.486;7.964;2024-01-07T11:10:46;22.37;;;12.00;;
4839;SDS011;2434;48.486;7.964;2024-01-07T11:13:33;21.63;;;13.10;;
4839;SDS011;2434;48.486;7.964;2024-01-07T11:16:02;26.63;;;14.23;;
4839;SDS011;2434;48.486;7.964;2024-01-07T11:18:31;26.10;;;14.03;;
4839;SDS011;2434;48.486;7.964;2024-01-07T11:21:01;23.00;;;13.40;;
4839;SDS011;2434;48.486;7.964;2024-01-07T11:23:30;21.67;;;14.30;;
4839;SDS011;2434;48.486;7.964;2024-01-07T11:26:00;25.90;;;14.00;;
4839;SDS011;2434;48.486;7.964;2024-01-07T11:28:57;24.00;;;13.50;;
4839;SDS011;2434;48.486;7.964;2024-01-07T11:31:43;21.67;;;13.20;;
4839;SDS011;2434;48.486;7.964;2024-01-07T11:37:07;20.87;;;13.10;;
4839;SDS011;2434;48.486;7.964;2024-01-07T11:39:37;23.20;;;14.00;;
4839;SDS011;2434;48.486;7.964;2024-01-07T11:42:05;23.97;;;14.23;;
4839;SDS011;2434;48.486;7.964;2024-01-07T11:44:35;22.07;;;14.27;;
4839;SDS011;2434;48.486;7.964;2024-01-07T11:47:04;19.20;;;13.33;;
4839;SDS011;2434;48.486;7.964;2024-01-07T11:49:32;21.10;;;13.60;;
4839;SDS011;2434;48.486;7.964;2024-01-07T11:52:01;21.20;;;13.53;;
4839;SDS011;2434;48.486;7.964;2024-01-07T11:54:31;18.80;;;12.30;;
4839;SDS011;2434;48.486;7.964;2024-01-07T11:56:59;22.00;;;13.27;;
4839;SDS011;2434;48.486;7.964;2024-01-07T11:59:28;22.27;;;14.20;;
4839;SDS011;2434;48.486;7.964;2024-01-07T12:01:58;20.90;;;13.37;;
4839;SDS011;2434;48.486;7.964;2024-01-07T12:04:27;22.50;;;13.10;;
4839;SDS011;2434;48.486;7.964;2024-01-07T12:06:55;20.03;;;12.63;;
4839;SDS011;2434;48.486;7.964;2024-01-07T12:09:24;23.40;;;14.00;;
4839;SDS011;2434;48.486;7.964;2024-01-07T12:11:52;19.60;;;12.67;;
4839;SDS011;2434;48.486;7.964;2024-01-07T12:14:20;22.23;;;13.57;;
4839;SDS011;2434;48.486;7.964;2024-01-07T12:16:49;20.40;;;11.77;;
4839;SDS011;2434;48.486;7.964;2024-01-07T12:19:18;17.33;;;11.50;;
4839;SDS011;2434;48.486;7.964;2024-01-07T12:21:49;17.60;;;11.60;;
4839;SDS011;2434;48.486;7.964;2024-01-07T12:24:28;17.17;;;11.10;;
4839;SDS011;2434;48.486;7.964;2024-01-07T12:26:56;16.97;;;11.17;;
4839;SDS011;2434;48.486;7.964;2024-01-07T12:29:30;18.53;;;12.47;;
4839;SDS011;2434;48.486;7.964;2024-01-07T12:31:58;22.47;;;11.80;;
4839;SDS011;2434;48.486;7.964;2024-01-07T12:34:30;17.17;;;10.83;;
4839;SDS011;2434;48.486;7.964;2024-01-07T12:36:59;17.60;;;10.83;;
4839;SDS011;2434;48.486;7.964;2024-01-07T12:39:28;18.70;;;11.93;;
4839;SDS011;2434;48.486;7.964;2024-01-07T12:41:56;17.60;;;12.07;;
4839;SDS011;2434;48.486;7.964;2024-01-07T12:44:26;18.90;;;12.00;;
4839;SDS011;2434;48.486;7.964;2024-01-07T12:46:55;18.20;;;12.03;;
4839;SDS011;2434;48.486;7.964;2024-01-07T12:49:23;17.13;;;10.47;;
4839;SDS011;2434;48.486;7.964;2024-01-07T12:51:52;20.47;;;13.07;;
4839;SDS011;2434;48.486;7.964;2024-01-07T12:54:21;17.33;;;11.20;;
4839;SDS011;2434;48.486;7.964;2024-01-07T12:56:50;16.57;;;11.20;;
4839;SDS011;2434;48.486;7.964;2024-01-07T12:59:19;16.20;;;11.27;;
4839;SDS011;2434;48.486;7.964;2024-01-07T13:01:47;16.87;;;11.57;;
4839;SDS011;2434;48.486;7.964;2024-01-07T13:04:18;19.80;;;9.57;;
4839;SDS011;2434;48.486;7.964;2024-01-07T13:06:47;23.63;;;10.10;;
4839;SDS011;2434;48.486;7.964;2024-01-07T13:09:16;15.37;;;10.77;;
4839;SDS011;2434;48.486;7.964;2024-01-07T13:11:44;13.90;;;9.13;;
4839;SDS011;2434;48.486;7.964;2024-01-07T13:14:12;12.87;;;9.07;;
4839;SDS011;2434;48.486;7.964;2024-01-07T13:16:40;14.43;;;9.40;;
4839;SDS011;2434;48.486;7.964;2024-01-07T13:19:09;11.57;;;8.57;;
4839;SDS011;2434;48.486;7.964;2024-01-07T13:21:38;10.87;;;7.43;;
4839;SDS011;2434;48.486;7.964;2024-01-07T13:24:08;10.70;;;6.37;;
4839;SDS011;2434;48.486;7.964;2024-01-07T13:26:38;10.77;;;7.43;;
4839;SDS011;2434;48.486;7.964;2024-01-07T13:29:08;13.20;;;7.20;;
4839;SDS011;2434;48.486;7.964;2024-01-07T13:31:36;9.80;;;6.67;;
4839;SDS011;2434;48.486;7.964;2024-01-07T13:34:04;10.37;;;6.77;;
4839;SDS011;2434;48.486;7.964;2024-01-07T13:36:33;9.67;;;6.20;;
4839;SDS011;2434;48.486;7.964;2024-01-07T13:39:01;8.30;;;5.80;;
4839;SDS011;2434;48.486;7.964;2024-01-07T13:41:29;7.47;;;5.70;;
4839;SDS011;2434;48.486;7.964;2024-01-07T13:44:00;7.63;;;5.37;;
4839;SDS011;2434;48.486;7.964;2024-01-07T13:46:29;6.50;;;4.60;;
4839;SDS011;2434;48.486;7.964;2024-01-07T13:48:57;7.57;;;5.47;;
4839;SDS011;2434;48.486;7.964;2024-01-07T13:51:27;6.97;;;4.93;;
4839;SDS011;2434;48.486;7.964;2024-01-07T13:53:55;8.00;;;5.40;;
4839;SDS011;2434;48.486;7.964;2024-01-07T13:56:22;8.30;;;5.03;;
4839;SDS011;2434;48.486;7.964;2024-01-07T13:58:51;6.20;;;4.80;;
4839;SDS011;2434;48.486;7.964;2024-01-07T14:01:20;6.60;;;4.80;;
4839;SDS011;2434;48.486;7.964;2024-01-07T14:03:48;9.90;;;5.60;;
4839;SDS011;2434;48.486;7.964;2024-01-07T14:06:16;6.60;;;5.27;;
4839;SDS011;2434;48.486;7.964;2024-01-07T14:08:44;6.57;;;4.60;;
4839;SDS011;2434;48.486;7.964;2024-01-07T14:11:12;6.00;;;5.07;;
4839;SDS011;2434;48.486;7.964;2024-01-07T14:13:40;6.43;;;4.80;;
4839;SDS011;2434;48.486;7.964;2024-01-07T14:16:11;7.73;;;4.87;;
4839;SDS011;2434;48.486;7.964;2024-01-07T14:18:40;10.83;;;5.37;;
4839;SDS011;2434;48.486;7.964;2024-01-07T14:21:09;7.57;;;4.80;;
4839;SDS011;2434;48.486;7.964;2024-01-07T14:23:37;6.83;;;4.97;;
4839;SDS011;2434;48.486;7.964;2024-01-07T14:26:05;5.57;;;4.70;;
4839;SDS011;2434;48.486;7.964;2024-01-07T14:28:33;7.83;;;5.20;;
4839;SDS011;2434;48.486;7.964;2024-01-07T14:31:02;7.20;;;5.23;;
4839;SDS011;2434;48.486;7.964;2024-01-07T14:33:31;7.07;;;5.20;;
4839;SDS011;2434;48.486;7.964;2024-01-07T14:36:01;7.93;;;5.80;;
4839;SDS011;2434;48.486;7.964;2024-01-07T14:38:29;8.17;;;5.83;;
4839;SDS011;2434;48.486;7.964;2024-01-07T14:40:57;6.97;;;5.80;;
4839;SDS011;2434;48.486;7.964;2024-01-07T14:43:26;8.30;;;6.20;;
4839;SDS011;2434;48.486;7.964;2024-01-07T14:45:54;10.90;;;6.93;;
4839;SDS011;2434;48.486;7.964;2024-01-07T14:48:22;10.63;;;7.73;;
4839;SDS011;2434;48.486;7.964;2024-01-07T14:50:50;10.83;;;8.07;;
4839;SDS011;2434;48.486;7.964;2024-01-07T14:53:19;14.10;;;10.43;;
4839;SDS011;2434;48.486;7.964;2024-01-07T14:55:47;15.67;;;10.57;;
4839;SDS011;2434;48.486;7.964;2024-01-07T14:58:15;12.33;;;9.03;;
4839;SDS011;2434;48.486;7.964;2024-01-07T15:00:44;14.00;;;9.27;;
4839;SDS011;2434;48.486;7.964;2024-01-07T15:03:13;14.07;;;8.23;;
4839;SDS011;2434;48.486;7.964;2024-01-07T15:05:41;14.97;;;9.27;;
4839;SDS011;2434;48.486;7.964;2024-01-07T15:08:09;14.27;;;9.30;;
4839;SDS011;2434;48.486;7.964;2024-01-07T15:10:40;12.57;;;8.70;;